Kaleen Mc Allister — WDB3847 — position and weather

sailwx.info

Track history (hours):
 
Tides and Currents Weather Stations Pressure Air Temp Water Temp Dewpoint Dewpoint Depression Visibility Wind Speed Wind Dir Waves Ship Positions

Kaleen Mc Allister

Owner: MC ALLISTER TOWING & TRANSPORTATION INC, NEW YORK, NY. More information available from US FCC via Universal Licensing System and Coast Guard Vessel Documentation Center.

Last reported at 2016-Sep-29 07:30 UTC. Time now 2016-Sep-29 08:32 UTC.
Position N 39°16' W 076°35'.

Length 31 m; draft 4 m.

Type: Tug. MMSI: 366891960.

Date/timePositionNaut miles runAvg speedWind from/ knotsBaromVisibWave heightAir tempDewpointWater temp
2016-Sep-29 07:30N 39°16' W 076°35'5 0.7
2016-Sep-29 00:34N 39°12' W 076°31'5 1.7
2016-Sep-28 21:34N 39°16' W 076°34'1 0.5
2016-Sep-28 19:34N 39°15' W 076°34'0 0.1
2016-Sep-28 16:34N 39°15' W 076°34'1 1.2
2016-Sep-28 15:32N 39°16' W 076°35'0 0.0
2016-Sep-28 12:32N 39°16' W 076°35'6 1.5
2016-Sep-28 08:34N 39°12' W 076°29'6 1.2
2016-Sep-28 03:30N 39°16' W 076°35'0 0.0
2016-Sep-28 02:30N 39°16' W 076°35'0 0.0
2016-Sep-28 01:30N 39°16' W 076°35'0 0.0
2016-Sep-27 23:30N 39°16' W 076°35'0 0.0
2016-Sep-27 19:30N 39°16' W 076°35'2 0.4
2016-Sep-27 14:34N 39°15' W 076°32'0 0.0
2016-Sep-27 13:34N 39°15' W 076°32'0 0.0
2016-Sep-27 10:28N 39°15' W 076°32'2 0.2
2016-Sep-27 00:33N 39°16' W 076°35'1 0.1
2016-Sep-26 20:34N 39°16' W 076°34'1 0.6
2016-Sep-26 19:33N 39°16' W 076°35'3 0.8
2016-Sep-26 15:34N 39°14' W 076°32'3 1.6
2016-Sep-26 13:32N 39°16' W 076°35'0 0.0
2016-Sep-26 11:30N 39°16' W 076°35'0 0.0
2016-Sep-26 08:30N 39°16' W 076°35'0 0.0
2016-Sep-26 02:31N 39°16' W 076°35'0 0.0
2016-Sep-26 01:30N 39°16' W 076°35'0 0.0
2016-Sep-26 00:33N 39°16' W 076°35'0 0.0
2016-Sep-25 21:30N 39°16' W 076°35'1 0.1
2016-Sep-25 17:32N 39°16' W 076°34'1 0.5
2016-Sep-25 16:30N 39°16' W 076°35'0 0.0
2016-Sep-25 15:30N 39°16' W 076°35'3 2.7
2016-Sep-25 14:23N 39°13' W 076°33'3 1.6
2016-Sep-25 12:32N 39°16' W 076°35'0 0.0
2016-Sep-25 11:33N 39°16' W 076°35'0 0.0
2016-Sep-25 10:32N 39°16' W 076°35'0 0.0
2016-Sep-25 09:34N 39°16' W 076°35'0 0.0
2016-Sep-25 07:33N 39°16' W 076°35'0 0.0
2016-Sep-25 04:34N 39°16' W 076°35'0 0.0
2016-Sep-25 00:34N 39°16' W 076°35'0 0.0
2016-Sep-24 22:30N 39°16' W 076°35'0 0.0
2016-Sep-24 21:30N 39°16' W 076°35'0 0.0
2016-Sep-24 19:30N 39°16' W 076°35'0 0.0
2016-Sep-24 18:30N 39°16' W 076°35'0 0.0
2016-Sep-24 17:30N 39°16' W 076°35'0 0.0
2016-Sep-24 16:30N 39°16' W 076°35'0 0.0
2016-Sep-24 14:30N 39°16' W 076°35'0 0.0
2016-Sep-24 12:34N 39°16' W 076°35'7 2.3
2016-Sep-24 09:33N 39°11' W 076°28'5 0.8
2016-Sep-24 03:31N 39°13' W 076°34'0 0.4
2016-Sep-24 02:28N 39°14' W 076°35'0 0.0
2016-Sep-24 01:30N 39°14' W 076°35'3 2.5
2016-Sep-24 00:30N 39°16' W 076°35'0 0.0
2016-Sep-23 19:33N 39°16' W 076°35'1 0.3
2016-Sep-23 17:33N 39°16' W 076°34'0 0.4
2016-Sep-23 16:32N 39°15' W 076°34'2 2.5
2016-Sep-23 15:33N 39°13' W 076°35'3 1.6
2016-Sep-23 13:34N 39°16' W 076°35'1 0.2
2016-Sep-23 09:34N 39°15' W 076°34'1 0.3
2016-Sep-23 06:33N 39°16' W 076°35'0 0.0
2016-Sep-23 04:32N 39°16' W 076°35'0 0.0
2016-Sep-23 03:34N 39°16' W 076°35'0 0.0
2016-Sep-23 02:30N 39°16' W 076°35'0 0.0
2016-Sep-23 01:33N 39°16' W 076°35'0 0.0
2016-Sep-23 00:30N 39°16' W 076°35'0 0.0
2016-Sep-22 23:30N 39°16' W 076°35'0 0.0
2016-Sep-22 20:30N 39°16' W 076°35'3 0.4
2016-Sep-22 12:32N 39°13' W 076°35'3 0.3
2016-Sep-22 04:31N 39°14' W 076°32'0 0.0
2016-Sep-22 03:30N 39°14' W 076°32'3 1.0
2016-Sep-22 00:30N 39°16' W 076°35'0 0.0
2016-Sep-21 23:34N 39°16' W 076°35'0 0.0
2016-Sep-21 22:33N 39°16' W 076°35'0 0.0
2016-Sep-21 19:33N 39°16' W 076°35'0 0.0
2016-Sep-21 16:30N 39°16' W 076°35'0 0.0
2016-Sep-21 09:33N 39°16' W 076°35'0 0.0
2016-Sep-21 08:33N 39°16' W 076°35'0 0.0
2016-Sep-21 05:31N 39°16' W 076°35'0 0.0
2016-Sep-21 03:34N 39°16' W 076°35'0 0.0
2016-Sep-21 02:34N 39°16' W 076°35'3 0.3
2016-Sep-20 17:34N 39°14' W 076°34'0 0.1
2016-Sep-20 14:16N 39°13' W 076°34'0 0.3
2016-Sep-20 13:34N 39°13' W 076°34'2 0.7
2016-Sep-20 10:32N 39°15' W 076°33'1 0.3
2016-Sep-20 08:30N 39°15' W 076°34'0 0.0
2016-Sep-20 07:30N 39°15' W 076°34'0 0.0
2016-Sep-20 06:30N 39°15' W 076°34'2 0.5
2016-Sep-20 02:30N 39°14' W 076°34'3 0.9
2016-Sep-19 23:30N 39°16' W 076°35'1 0.2
2016-Sep-19 19:32N 39°15' W 076°34'2 1.7
2016-Sep-19 18:33N 39°15' W 076°32'1 0.4
2016-Sep-19 16:28N 39°14' W 076°32'3 1.3
2016-Sep-19 14:33N 39°16' W 076°35'0 0.3
2016-Sep-19 13:34N 39°16' W 076°35'0 0.0
2016-Sep-19 12:34N 39°16' W 076°35'0 0.0
2016-Sep-19 11:30N 39°16' W 076°35'0 0.0
2016-Sep-19 09:34N 39°16' W 076°35'0 0.0
2016-Sep-19 07:34N 39°16' W 076°35'  
Track history (hours):
 
Tides and Currents Weather Stations Pressure Air Temp Water Temp Dewpoint Dewpoint Depression Visibility Wind Speed Wind Dir Waves Ship Positions

Kaleen Mc Allister

Owner: MC ALLISTER TOWING & TRANSPORTATION INC, NEW YORK, NY. More information available from US FCC via Universal Licensing System and Coast Guard Vessel Documentation Center.

Last reported at 2016-Sep-29 07:30 UTC. Time now 2016-Sep-29 08:32 UTC.
Position N 39°16' W 076°35'.

Length 31 m; draft 4 m.

Type: Tug. MMSI: 366891960.

Date/timePositionNaut miles runAvg speedWind from/ knotsBaromVisibWave heightAir tempDewpointWater temp
2016-Sep-29 07:30N 39°16' W 076°35'5 0.7
2016-Sep-29 00:34N 39°12' W 076°31'5 1.7
2016-Sep-28 21:34N 39°16' W 076°34'1 0.5
2016-Sep-28 19:34N 39°15' W 076°34'0 0.1
2016-Sep-28 16:34N 39°15' W 076°34'1 1.2
2016-Sep-28 15:32N 39°16' W 076°35'0 0.0
2016-Sep-28 12:32N 39°16' W 076°35'6 1.5
2016-Sep-28 08:34N 39°12' W 076°29'6 1.2
2016-Sep-28 03:30N 39°16' W 076°35'0 0.0
2016-Sep-28 02:30N 39°16' W 076°35'0 0.0
2016-Sep-28 01:30N 39°16' W 076°35'0 0.0
2016-Sep-27 23:30N 39°16' W 076°35'0 0.0
2016-Sep-27 19:30N 39°16' W 076°35'2 0.4
2016-Sep-27 14:34N 39°15' W 076°32'0 0.0
2016-Sep-27 13:34N 39°15' W 076°32'0 0.0
2016-Sep-27 10:28N 39°15' W 076°32'2 0.2
2016-Sep-27 00:33N 39°16' W 076°35'1 0.1
2016-Sep-26 20:34N 39°16' W 076°34'1 0.6
2016-Sep-26 19:33N 39°16' W 076°35'3 0.8
2016-Sep-26 15:34N 39°14' W 076°32'3 1.6
2016-Sep-26 13:32N 39°16' W 076°35'0 0.0
2016-Sep-26 11:30N 39°16' W 076°35'0 0.0
2016-Sep-26 08:30N 39°16' W 076°35'0 0.0
2016-Sep-26 02:31N 39°16' W 076°35'0 0.0
2016-Sep-26 01:30N 39°16' W 076°35'0 0.0
2016-Sep-26 00:33N 39°16' W 076°35'0 0.0
2016-Sep-25 21:30N 39°16' W 076°35'1 0.1
2016-Sep-25 17:32N 39°16' W 076°34'1 0.5
2016-Sep-25 16:30N 39°16' W 076°35'0 0.0
2016-Sep-25 15:30N 39°16' W 076°35'3 2.7
2016-Sep-25 14:23N 39°13' W 076°33'3 1.6
2016-Sep-25 12:32N 39°16' W 076°35'0 0.0
2016-Sep-25 11:33N 39°16' W 076°35'0 0.0
2016-Sep-25 10:32N 39°16' W 076°35'0 0.0
2016-Sep-25 09:34N 39°16' W 076°35'0 0.0
2016-Sep-25 07:33N 39°16' W 076°35'0 0.0
2016-Sep-25 04:34N 39°16' W 076°35'0 0.0
2016-Sep-25 00:34N 39°16' W 076°35'0 0.0
2016-Sep-24 22:30N 39°16' W 076°35'0 0.0
2016-Sep-24 21:30N 39°16' W 076°35'0 0.0
2016-Sep-24 19:30N 39°16' W 076°35'0 0.0
2016-Sep-24 18:30N 39°16' W 076°35'0 0.0
2016-Sep-24 17:30N 39°16' W 076°35'0 0.0
2016-Sep-24 16:30N 39°16' W 076°35'0 0.0
2016-Sep-24 14:30N 39°16' W 076°35'0 0.0
2016-Sep-24 12:34N 39°16' W 076°35'7 2.3
2016-Sep-24 09:33N 39°11' W 076°28'5 0.8
2016-Sep-24 03:31N 39°13' W 076°34'0 0.4
2016-Sep-24 02:28N 39°14' W 076°35'0 0.0
2016-Sep-24 01:30N 39°14' W 076°35'3 2.5
2016-Sep-24 00:30N 39°16' W 076°35'0 0.0
2016-Sep-23 19:33N 39°16' W 076°35'1 0.3
2016-Sep-23 17:33N 39°16' W 076°34'0 0.4
2016-Sep-23 16:32N 39°15' W 076°34'2 2.5
2016-Sep-23 15:33N 39°13' W 076°35'3 1.6
2016-Sep-23 13:34N 39°16' W 076°35'1 0.2
2016-Sep-23 09:34N 39°15' W 076°34'1 0.3
2016-Sep-23 06:33N 39°16' W 076°35'0 0.0
2016-Sep-23 04:32N 39°16' W 076°35'0 0.0
2016-Sep-23 03:34N 39°16' W 076°35'0 0.0
2016-Sep-23 02:30N 39°16' W 076°35'0 0.0
2016-Sep-23 01:33N 39°16' W 076°35'0 0.0
2016-Sep-23 00:30N 39°16' W 076°35'0 0.0
2016-Sep-22 23:30N 39°16' W 076°35'0 0.0
2016-Sep-22 20:30N 39°16' W 076°35'3 0.4
2016-Sep-22 12:32N 39°13' W 076°35'3 0.3
2016-Sep-22 04:31N 39°14' W 076°32'0 0.0
2016-Sep-22 03:30N 39°14' W 076°32'3 1.0
2016-Sep-22 00:30N 39°16' W 076°35'0 0.0
2016-Sep-21 23:34N 39°16' W 076°35'0 0.0
2016-Sep-21 22:33N 39°16' W 076°35'0 0.0
2016-Sep-21 19:33N 39°16' W 076°35'0 0.0
2016-Sep-21 16:30N 39°16' W 076°35'0 0.0
2016-Sep-21 09:33N 39°16' W 076°35'0 0.0
2016-Sep-21 08:33N 39°16' W 076°35'0 0.0
2016-Sep-21 05:31N 39°16' W 076°35'0 0.0
2016-Sep-21 03:34N 39°16' W 076°35'0 0.0
2016-Sep-21 02:34N 39°16' W 076°35'3 0.3
2016-Sep-20 17:34N 39°14' W 076°34'0 0.1
2016-Sep-20 14:16N 39°13' W 076°34'0 0.3
2016-Sep-20 13:34N 39°13' W 076°34'2 0.7
2016-Sep-20 10:32N 39°15' W 076°33'1 0.3
2016-Sep-20 08:30N 39°15' W 076°34'0 0.0
2016-Sep-20 07:30N 39°15' W 076°34'0 0.0
2016-Sep-20 06:30N 39°15' W 076°34'2 0.5
2016-Sep-20 02:30N 39°14' W 076°34'3 0.9
2016-Sep-19 23:30N 39°16' W 076°35'1 0.2
2016-Sep-19 19:32N 39°15' W 076°34'2 1.7
2016-Sep-19 18:33N 39°15' W 076°32'1 0.4
2016-Sep-19 16:28N 39°14' W 076°32'3 1.3
2016-Sep-19 14:33N 39°16' W 076°35'0 0.3
2016-Sep-19 13:34N 39°16' W 076°35'0 0.0
2016-Sep-19 12:34N 39°16' W 076°35'0 0.0
2016-Sep-19 11:30N 39°16' W 076°35'0 0.0
2016-Sep-19 09:34N 39°16' W 076°35'0 0.0
2016-Sep-19 07:34N 39°16' W 076°35'  

Dump ship's entire track history